createdAt,value
2023-03-29T00:01:35.153Z,2.03
2023-03-29T00:04:04.308Z,1.83
2023-03-29T00:06:31.318Z,1.48
2023-03-29T00:08:58.095Z,1.30
2023-03-29T00:11:25.831Z,1.40
2023-03-29T00:13:52.625Z,1.60
2023-03-29T00:16:19.413Z,1.33
2023-03-29T00:18:46.189Z,1.30
2023-03-29T00:21:12.985Z,1.30
2023-03-29T00:23:39.694Z,1.85
2023-03-29T00:26:08.226Z,1.60
2023-03-29T00:28:35.633Z,1.60
2023-03-29T00:31:10.098Z,1.80
2023-03-29T00:33:37.104Z,1.92
2023-03-29T00:36:04.601Z,1.60
2023-03-29T00:38:31.723Z,1.65
2023-03-29T00:40:58.683Z,1.25
2023-03-29T00:43:25.452Z,1.58
2023-03-29T00:45:52.333Z,1.38
2023-03-29T00:48:22.572Z,1.30
2023-03-29T00:51:01.773Z,1.38
2023-03-29T00:53:39.892Z,1.08
2023-03-29T00:56:10.091Z,1.27
2023-03-29T00:58:40.509Z,1.50
2023-03-29T01:01:08.803Z,1.60
2023-03-29T01:03:41.479Z,1.40
2023-03-29T01:06:09.182Z,1.35
2023-03-29T01:08:41.965Z,1.42
2023-03-29T01:11:10.027Z,1.23
2023-03-29T01:13:42.005Z,1.50
2023-03-29T01:16:09.265Z,1.70
2023-03-29T01:18:36.444Z,1.95
2023-03-29T01:21:14.776Z,1.70
2023-03-29T01:23:53.873Z,1.77
2023-03-29T01:26:42.687Z,1.50
2023-03-29T01:29:21.288Z,1.75
2023-03-29T01:31:51.770Z,1.98
2023-03-29T01:34:27.571Z,1.88
2023-03-29T01:37:15.734Z,1.30
2023-03-29T01:39:42.499Z,1.70
2023-03-29T01:42:09.261Z,1.20
2023-03-29T01:44:58.847Z,1.42
2023-03-29T01:47:47.296Z,1.20
2023-03-29T01:50:32.295Z,1.75
2023-03-29T01:53:39.392Z,1.30
2023-03-29T01:56:12.522Z,1.10
2023-03-29T01:58:47.493Z,1.23
2023-03-29T02:01:17.767Z,1.20
2023-03-29T02:03:49.917Z,1.05
2023-03-29T02:06:19.055Z,1.10
2023-03-29T02:08:45.862Z,1.17
2023-03-29T02:11:12.823Z,1.00
2023-03-29T02:13:39.630Z,1.20
2023-03-29T02:16:12.463Z,1.35
2023-03-29T02:18:40.519Z,1.23
2023-03-29T02:21:07.599Z,1.00
2023-03-29T02:23:35.587Z,0.98
2023-03-29T02:26:03.400Z,1.85
2023-03-29T02:28:30.233Z,1.50
2023-03-29T02:31:03.145Z,1.13
2023-03-29T02:33:52.235Z,1.45
2023-03-29T02:36:22.495Z,1.00
2023-03-29T02:38:49.553Z,1.27
2023-03-29T02:41:19.802Z,1.20
2023-03-29T02:43:46.663Z,1.17
2023-03-29T02:46:13.642Z,1.80
2023-03-29T02:48:40.472Z,1.33
2023-03-29T02:51:19.941Z,1.67
2023-03-29T02:53:53.297Z,1.55
2023-03-29T02:56:20.347Z,1.45
2023-03-29T02:58:47.169Z,1.50
2023-03-29T03:01:14.880Z,1.65
2023-03-29T03:03:41.763Z,1.20
2023-03-29T03:06:08.690Z,1.50
2023-03-29T03:08:35.443Z,1.30
2023-03-29T03:11:02.596Z,1.55
2023-03-29T03:13:29.634Z,1.40
2023-03-29T03:15:56.432Z,1.80
2023-03-29T03:18:23.358Z,1.45
2023-03-29T03:21:01.903Z,1.50
2023-03-29T03:23:29.605Z,1.35
2023-03-29T03:25:56.628Z,1.77
2023-03-29T03:28:24.351Z,1.60
2023-03-29T03:30:51.276Z,1.30
2023-03-29T03:33:19.227Z,1.75
2023-03-29T03:35:48.714Z,1.00
2023-03-29T03:38:15.460Z,1.27
2023-03-29T03:40:42.639Z,1.70
2023-03-29T03:43:09.803Z,1.20
2023-03-29T03:45:36.557Z,1.23
2023-03-29T03:48:03.437Z,1.40
2023-03-29T03:50:30.231Z,1.20
2023-03-29T03:52:57.021Z,1.10
2023-03-29T03:55:24.028Z,1.20
2023-03-29T03:57:52.051Z,1.30
2023-03-29T04:00:21.460Z,1.70
2023-03-29T04:02:48.381Z,1.45
2023-03-29T04:05:15.477Z,1.40
2023-03-29T04:07:42.712Z,1.77
2023-03-29T04:10:11.128Z,1.40
2023-03-29T04:12:38.180Z,1.67
2023-03-29T04:15:06.064Z,1.40
2023-03-29T04:17:32.924Z,1.35
2023-03-29T04:20:02.262Z,1.40
2023-03-29T04:22:28.996Z,0.95
2023-03-29T04:24:56.264Z,0.85
2023-03-29T04:27:23.045Z,1.20
2023-03-29T04:29:49.828Z,1.30
2023-03-29T04:32:16.596Z,1.15
2023-03-29T04:34:43.286Z,1.77
2023-03-29T04:37:10.104Z,1.40
2023-03-29T04:39:37.587Z,1.48
2023-03-29T04:42:05.252Z,1.02
2023-03-29T04:44:35.064Z,1.00
2023-03-29T04:47:02.045Z,1.13
2023-03-29T04:49:29.064Z,0.98
2023-03-29T04:51:55.936Z,1.50
2023-03-29T04:54:22.907Z,1.20
2023-03-29T04:56:49.758Z,1.10
2023-03-29T04:59:16.506Z,1.50
2023-03-29T05:01:43.362Z,1.17
2023-03-29T05:04:12.532Z,1.70
2023-03-29T05:06:40.088Z,1.75
2023-03-29T05:09:07.361Z,1.90
2023-03-29T05:11:34.324Z,1.80
2023-03-29T05:14:03.252Z,1.67
2023-03-29T05:16:30.227Z,2.05
2023-03-29T05:18:57.616Z,1.55
2023-03-29T05:21:26.162Z,1.35
2023-03-29T05:23:53.356Z,1.15
2023-03-29T05:26:22.345Z,1.50
2023-03-29T05:28:50.655Z,1.55
2023-03-29T05:31:17.635Z,1.90
2023-03-29T05:33:44.405Z,1.70
2023-03-29T05:36:13.591Z,1.70
2023-03-29T05:38:41.210Z,2.70
2023-03-29T05:41:08.365Z,2.38
2023-03-29T05:43:35.156Z,2.83
2023-03-29T05:46:02.281Z,2.95
2023-03-29T05:48:29.113Z,4.40
2023-03-29T05:50:56.409Z,3.17
2023-03-29T05:53:24.048Z,4.07
2023-03-29T05:55:51.484Z,3.20
2023-03-29T05:58:19.021Z,3.60
2023-03-29T06:00:46.165Z,4.20
2023-03-29T06:03:20.833Z,3.00
2023-03-29T06:05:50.011Z,3.00
2023-03-29T06:08:16.910Z,3.05
2023-03-29T06:10:43.804Z,3.03
2023-03-29T06:13:10.940Z,2.05
2023-03-29T06:15:38.113Z,2.53
2023-03-29T06:18:05.909Z,2.70
2023-03-29T06:20:33.315Z,1.90
2023-03-29T06:23:00.124Z,2.33
2023-03-29T06:25:26.983Z,1.83
2023-03-29T06:27:54.278Z,1.80
2023-03-29T06:30:21.100Z,1.50
2023-03-29T06:32:49.903Z,1.60
2023-03-29T06:35:17.439Z,1.30
2023-03-29T06:37:49.944Z,1.38
2023-03-29T06:40:21.304Z,1.35
2023-03-29T06:42:48.467Z,1.13
2023-03-29T06:45:16.036Z,1.20
2023-03-29T06:47:42.787Z,1.30
2023-03-29T06:50:11.583Z,1.40
2023-03-29T06:52:38.343Z,1.05
2023-03-29T06:55:07.796Z,1.40
2023-03-29T06:57:34.617Z,1.08
2023-03-29T07:00:01.682Z,1.30
2023-03-29T07:02:29.204Z,1.40
2023-03-29T07:04:56.250Z,1.63
2023-03-29T07:07:23.145Z,1.88
2023-03-29T07:09:55.624Z,1.27
2023-03-29T07:12:23.068Z,1.50
2023-03-29T07:14:49.862Z,1.20
2023-03-29T07:17:16.818Z,1.30
2023-03-29T07:19:43.891Z,1.55
2023-03-29T07:22:11.337Z,1.70
2023-03-29T07:24:38.082Z,1.60
2023-03-29T07:27:05.138Z,2.20
2023-03-29T07:29:32.377Z,1.80
2023-03-29T07:31:59.159Z,1.75
2023-03-29T07:34:25.912Z,1.75
2023-03-29T07:36:52.925Z,1.50
2023-03-29T07:39:20.437Z,1.70
2023-03-29T07:41:47.246Z,1.67
2023-03-29T07:44:13.970Z,1.70
2023-03-29T07:46:42.795Z,1.67
2023-03-29T07:49:09.552Z,1.70
2023-03-29T07:51:37.127Z,1.85
2023-03-29T07:54:05.383Z,1.60
2023-03-29T07:56:32.267Z,2.08
2023-03-29T07:58:58.984Z,2.10
2023-03-29T08:01:26.088Z,2.33
2023-03-29T08:03:53.446Z,2.00
2023-03-29T08:06:20.215Z,3.00
2023-03-29T08:08:47.040Z,2.42
2023-03-29T08:11:14.170Z,2.33
2023-03-29T08:13:41.031Z,1.95
2023-03-29T08:16:08.919Z,2.35
2023-03-29T08:18:35.772Z,2.30
2023-03-29T08:21:02.854Z,2.33
2023-03-29T08:23:29.924Z,2.20
2023-03-29T08:25:56.686Z,2.38
2023-03-29T08:28:23.461Z,2.08
2023-03-29T08:30:50.443Z,2.30
2023-03-29T08:33:17.344Z,2.30
2023-03-29T08:35:44.183Z,1.98
2023-03-29T08:38:11.152Z,2.53
2023-03-29T08:40:38.058Z,2.55
2023-03-29T08:43:38.534Z,2.40
2023-03-29T08:46:42.525Z,2.00
2023-03-29T08:49:09.495Z,2.15
2023-03-29T08:51:47.141Z,2.10
2023-03-29T08:54:16.931Z,2.00
2023-03-29T08:56:46.386Z,2.10
2023-03-29T08:59:33.500Z,2.00
2023-03-29T09:02:00.849Z,2.30
2023-03-29T09:04:37.719Z,1.90
2023-03-29T09:07:08.256Z,2.00
2023-03-29T09:09:35.028Z,1.83
2023-03-29T09:12:35.821Z,1.92
2023-03-29T09:15:10.751Z,2.40
2023-03-29T09:17:56.501Z,1.85
2023-03-29T09:20:58.499Z,2.42
2023-03-29T09:23:42.778Z,2.15
2023-03-29T09:26:31.817Z,3.10
2023-03-29T09:29:08.996Z,2.22
2023-03-29T09:31:38.977Z,2.20
2023-03-29T09:34:28.964Z,1.83
2023-03-29T09:37:03.054Z,1.80
2023-03-29T09:39:29.858Z,2.20
2023-03-29T09:42:08.006Z,1.58
2023-03-29T09:44:57.331Z,1.85
2023-03-29T09:47:27.510Z,2.20
2023-03-29T09:49:57.683Z,2.40
2023-03-29T09:52:24.466Z,1.90
2023-03-29T09:54:51.243Z,2.67
2023-03-29T09:57:18.413Z,1.77
2023-03-29T09:59:49.704Z,2.42
2023-03-29T10:02:17.809Z,1.80
2023-03-29T10:04:44.674Z,1.92
2023-03-29T10:07:18.114Z,2.45
2023-03-29T10:09:45.543Z,2.10
2023-03-29T10:12:12.537Z,2.40
2023-03-29T10:14:47.165Z,2.67
2023-03-29T10:17:24.703Z,2.10
2023-03-29T10:20:07.494Z,1.90
2023-03-29T10:22:38.004Z,2.35
2023-03-29T10:25:09.221Z,2.03
2023-03-29T10:27:36.159Z,2.20
2023-03-29T10:30:09.234Z,2.00
2023-03-29T10:32:36.832Z,14.63
2023-03-29T10:35:19.336Z,51.73
2023-03-29T10:37:49.926Z,40.83
2023-03-29T10:40:22.087Z,30.37
2023-03-29T10:42:50.298Z,18.53
2023-03-29T10:45:49.948Z,13.97
2023-03-29T10:48:17.540Z,10.60
2023-03-29T10:50:53.101Z,6.80
2023-03-29T10:53:26.213Z,4.60
2023-03-29T10:56:18.751Z,3.10
2023-03-29T10:59:00.525Z,3.13
2023-03-29T11:01:32.325Z,1.93
2023-03-29T11:04:19.945Z,2.83
2023-03-29T11:06:52.851Z,2.17
2023-03-29T11:09:27.071Z,1.77
2023-03-29T11:12:15.206Z,2.00
2023-03-29T11:14:52.408Z,1.80
2023-03-29T11:17:30.807Z,1.87
2023-03-29T11:20:12.610Z,1.40
2023-03-29T11:22:47.615Z,1.60
2023-03-29T11:25:38.803Z,1.93
2023-03-29T11:28:11.219Z,2.50
2023-03-29T11:31:05.710Z,2.47
2023-03-29T11:33:35.510Z,3.40
2023-03-29T11:36:16.763Z,2.47
2023-03-29T11:39:09.566Z,2.10
2023-03-29T11:41:40.287Z,1.97
2023-03-29T11:44:10.844Z,1.60
2023-03-29T11:46:44.951Z,1.80
2023-03-29T11:49:12.886Z,1.77
2023-03-29T11:51:42.859Z,1.40
2023-03-29T11:54:18.623Z,1.70
2023-03-29T11:56:47.979Z,2.30
2023-03-29T11:59:23.546Z,1.57
2023-03-29T12:01:54.183Z,2.00
2023-03-29T12:04:32.372Z,1.90
2023-03-29T12:07:08.877Z,2.20
2023-03-29T12:09:47.887Z,2.47
2023-03-29T12:12:25.108Z,1.73
2023-03-29T12:15:17.221Z,1.73
2023-03-29T12:18:03.988Z,1.83
2023-03-29T12:20:32.994Z,1.90
2023-03-29T12:22:59.781Z,1.80
2023-03-29T12:25:58.057Z,1.90
2023-03-29T12:28:34.459Z,1.60
2023-03-29T12:31:19.148Z,1.63
2023-03-29T12:33:51.954Z,0.90
2023-03-29T12:36:31.641Z,1.10
2023-03-29T12:38:58.430Z,1.00
2023-03-29T12:41:25.274Z,1.03
2023-03-29T12:43:52.084Z,1.10
2023-03-29T12:46:26.599Z,1.00
2023-03-29T12:48:57.370Z,0.87
2023-03-29T12:51:29.807Z,1.00
2023-03-29T12:54:04.253Z,1.03
2023-03-29T12:56:41.818Z,0.83
2023-03-29T12:59:11.635Z,1.27
2023-03-29T13:01:39.239Z,1.30
2023-03-29T13:04:20.069Z,1.43
2023-03-29T13:06:46.822Z,1.33
2023-03-29T13:09:22.064Z,1.20
2023-03-29T13:11:52.963Z,1.33
2023-03-29T13:14:20.662Z,1.33
2023-03-29T13:16:47.542Z,1.50
2023-03-29T13:19:31.758Z,1.20
2023-03-29T13:22:17.791Z,1.30
2023-03-29T13:25:05.972Z,1.47
2023-03-29T13:27:50.929Z,1.80
2023-03-29T13:30:34.708Z,1.73
2023-03-29T13:33:31.539Z,1.40
2023-03-29T13:36:33.209Z,1.20
2023-03-29T13:39:02.946Z,1.40
2023-03-29T13:41:43.696Z,1.30
2023-03-29T13:44:22.656Z,1.40
2023-03-29T13:46:49.930Z,1.13
2023-03-29T13:49:23.977Z,1.10
2023-03-29T13:51:53.745Z,1.20
2023-03-29T13:54:44.168Z,1.23
2023-03-29T13:57:30.234Z,1.00
2023-03-29T14:00:13.848Z,1.17
2023-03-29T14:03:04.257Z,1.53
2023-03-29T14:05:44.531Z,2.10
2023-03-29T14:08:23.113Z,1.50
2023-03-29T14:10:49.899Z,0.80
2023-03-29T14:13:20.773Z,2.03
2023-03-29T14:15:52.266Z,1.43
2023-03-29T14:18:21.301Z,1.47
2023-03-29T14:20:53.613Z,1.33
2023-03-29T14:23:22.042Z,1.60
2023-03-29T14:25:48.953Z,2.37
2023-03-29T14:28:26.475Z,3.90
2023-03-29T14:30:53.785Z,3.93
2023-03-29T14:33:33.406Z,3.63
2023-03-29T14:36:03.815Z,4.53
2023-03-29T14:38:31.350Z,2.73
2023-03-29T14:41:01.769Z,2.53
2023-03-29T14:43:30.486Z,2.47
2023-03-29T14:45:58.180Z,2.50
2023-03-29T14:48:24.997Z,1.67
2023-03-29T14:50:51.984Z,1.53
2023-03-29T14:53:20.520Z,1.30
2023-03-29T14:55:50.587Z,1.63
2023-03-29T14:58:21.855Z,1.60
2023-03-29T15:00:50.433Z,1.30
2023-03-29T15:03:17.348Z,1.50
2023-03-29T15:05:58.222Z,1.47
2023-03-29T15:08:38.318Z,1.10
2023-03-29T15:11:23.241Z,1.73
2023-03-29T15:13:52.159Z,1.23
2023-03-29T15:16:20.198Z,1.50
2023-03-29T15:18:48.569Z,1.10
2023-03-29T15:21:17.160Z,1.00
2023-03-29T15:23:48.629Z,1.27
2023-03-29T15:26:20.704Z,1.10
2023-03-29T15:28:55.607Z,1.07
2023-03-29T15:31:26.508Z,1.03
2023-03-29T15:34:09.372Z,1.53
2023-03-29T15:36:42.759Z,1.27
2023-03-29T15:39:13.621Z,1.43
2023-03-29T15:41:41.491Z,1.80
2023-03-29T15:44:08.285Z,1.30
2023-03-29T15:46:35.170Z,1.53
2023-03-29T15:49:02.066Z,1.43
2023-03-29T15:51:28.846Z,0.90
2023-03-29T15:53:55.877Z,1.30
2023-03-29T15:56:23.326Z,1.10
2023-03-29T15:58:50.076Z,1.10
2023-03-29T16:01:37.573Z,1.07
2023-03-29T16:04:06.788Z,1.20
2023-03-29T16:06:33.742Z,1.17
2023-03-29T16:09:00.717Z,1.27
2023-03-29T16:11:28.429Z,1.20
2023-03-29T16:13:56.343Z,1.63
2023-03-29T16:16:23.482Z,2.27
2023-03-29T16:18:50.611Z,1.40
2023-03-29T16:21:21.366Z,2.10
2023-03-29T16:23:48.227Z,1.30
2023-03-29T16:26:16.320Z,1.83
2023-03-29T16:28:43.290Z,2.10
2023-03-29T16:31:11.888Z,2.30
2023-03-29T16:33:39.179Z,2.10
2023-03-29T16:36:06.613Z,1.67
2023-03-29T16:38:34.083Z,1.70
2023-03-29T16:41:01.596Z,1.90
2023-03-29T16:43:28.452Z,1.40
2023-03-29T16:45:55.262Z,1.53
2023-03-29T16:48:22.196Z,2.40
2023-03-29T16:50:49.470Z,1.63
2023-03-29T16:53:18.289Z,2.10
2023-03-29T16:55:48.181Z,1.10
2023-03-29T16:58:15.430Z,1.87
2023-03-29T17:00:44.384Z,1.30
2023-03-29T17:03:12.806Z,1.53
2023-03-29T17:05:42.561Z,1.60
2023-03-29T17:08:10.148Z,1.37
2023-03-29T17:10:39.412Z,1.80
2023-03-29T17:13:06.789Z,2.07
2023-03-29T17:15:33.847Z,1.77
2023-03-29T17:18:00.696Z,1.40
2023-03-29T17:20:27.565Z,1.17
2023-03-29T17:22:56.047Z,1.40
2023-03-29T17:25:23.256Z,2.50
2023-03-29T17:27:50.552Z,1.13
2023-03-29T17:30:17.383Z,2.90
2023-03-29T17:32:45.561Z,1.13
2023-03-29T17:35:12.783Z,1.03
2023-03-29T17:37:39.780Z,1.07
2023-03-29T17:40:14.163Z,1.30
2023-03-29T17:42:41.932Z,1.70
2023-03-29T17:45:10.542Z,1.43
2023-03-29T17:47:38.073Z,1.93
2023-03-29T17:50:05.635Z,1.33
2023-03-29T17:52:32.454Z,1.40
2023-03-29T17:54:59.232Z,1.20
2023-03-29T17:57:25.994Z,1.50
2023-03-29T17:59:52.873Z,2.33
2023-03-29T18:02:21.581Z,2.10
2023-03-29T18:04:48.584Z,2.20
2023-03-29T18:07:15.918Z,1.97
2023-03-29T18:09:42.793Z,2.23
2023-03-29T18:12:09.569Z,1.80
2023-03-29T18:14:36.463Z,1.37
2023-03-29T18:17:03.428Z,1.30
2023-03-29T18:19:30.241Z,2.17
2023-03-29T18:21:57.515Z,3.10
2023-03-29T18:24:24.339Z,5.23
2023-03-29T18:26:51.309Z,5.10
2023-03-29T18:29:18.125Z,4.47
2023-03-29T18:31:46.221Z,3.20
2023-03-29T18:34:13.094Z,3.03
2023-03-29T18:36:39.951Z,4.67
2023-03-29T18:39:06.829Z,2.90
2023-03-29T18:41:34.597Z,2.63
2023-03-29T18:44:01.427Z,2.13
2023-03-29T18:46:31.157Z,2.40
2023-03-29T18:48:58.619Z,1.57
2023-03-29T18:51:27.919Z,1.70
2023-03-29T18:53:55.289Z,2.20
2023-03-29T18:56:21.997Z,2.33
2023-03-29T18:58:48.875Z,1.50
2023-03-29T19:01:15.777Z,1.63
2023-03-29T19:03:42.770Z,1.30
2023-03-29T19:06:09.585Z,1.00
2023-03-29T19:08:38.730Z,1.43
2023-03-29T19:11:07.394Z,1.30
2023-03-29T19:13:34.703Z,4.80
2023-03-29T19:16:01.745Z,3.80
2023-03-29T19:18:28.753Z,4.47
2023-03-29T19:20:56.157Z,4.43
2023-03-29T19:23:25.156Z,4.10
2023-03-29T19:25:53.253Z,3.47
2023-03-29T19:28:20.015Z,3.10
2023-03-29T19:30:46.892Z,3.57
2023-03-29T19:33:14.627Z,2.87
2023-03-29T19:35:41.727Z,3.10
2023-03-29T19:38:08.681Z,2.53
2023-03-29T19:40:36.492Z,2.73
2023-03-29T19:43:03.534Z,2.00
2023-03-29T19:45:30.351Z,3.47
2023-03-29T19:47:57.774Z,3.13
2023-03-29T19:50:26.225Z,2.10
2023-03-29T19:52:57.149Z,1.80
2023-03-29T19:55:23.899Z,1.47
2023-03-29T19:57:51.118Z,1.50
2023-03-29T20:00:18.809Z,1.40
2023-03-29T20:02:45.497Z,1.33
2023-03-29T20:05:12.542Z,1.60
2023-03-29T20:07:39.346Z,1.50
2023-03-29T20:10:06.557Z,1.70
2023-03-29T20:12:33.291Z,1.47
2023-03-29T20:15:00.037Z,2.20
2023-03-29T20:17:26.782Z,1.53
2023-03-29T20:19:53.967Z,1.40
2023-03-29T20:22:20.822Z,1.60
2023-03-29T20:24:47.604Z,1.80
2023-03-29T20:27:15.851Z,1.80
2023-03-29T20:29:42.804Z,1.60
2023-03-29T20:32:09.737Z,1.80
2023-03-29T20:34:36.926Z,1.50
2023-03-29T20:37:03.750Z,1.90
2023-03-29T20:39:31.445Z,1.70
2023-03-29T20:41:59.048Z,2.13
2023-03-29T20:44:28.600Z,1.80
2023-03-29T20:47:06.651Z,2.80
2023-03-29T20:49:37.206Z,2.10
2023-03-29T20:52:10.661Z,1.40
2023-03-29T20:54:37.430Z,2.10
2023-03-29T20:57:04.888Z,1.57
2023-03-29T20:59:31.684Z,1.80
2023-03-29T21:02:00.300Z,1.53
2023-03-29T21:04:27.915Z,1.83
2023-03-29T21:06:56.166Z,2.20
2023-03-29T21:09:23.644Z,3.27
2023-03-29T21:11:50.854Z,1.97
2023-03-29T21:14:19.610Z,1.53
2023-03-29T21:16:47.559Z,1.57
2023-03-29T21:19:15.459Z,1.40
2023-03-29T21:21:47.002Z,1.93
2023-03-29T21:24:13.844Z,1.50
2023-03-29T21:26:43.695Z,1.70
2023-03-29T21:29:10.860Z,1.70
2023-03-29T21:31:37.761Z,2.73
2023-03-29T21:34:04.737Z,1.70
2023-03-29T21:36:31.423Z,2.70
2023-03-29T21:38:58.196Z,1.27
2023-03-29T21:41:25.030Z,1.47
2023-03-29T21:43:51.767Z,1.77
2023-03-29T21:46:18.663Z,1.50
2023-03-29T21:48:45.523Z,1.40
2023-03-29T21:51:12.312Z,2.10
2023-03-29T21:53:39.167Z,1.03
2023-03-29T21:56:06.808Z,1.60
2023-03-29T21:58:33.594Z,1.13
2023-03-29T22:01:03.683Z,1.10
2023-03-29T22:03:30.705Z,1.90
2023-03-29T22:05:58.891Z,1.20
2023-03-29T22:08:26.496Z,1.63
2023-03-29T22:10:57.133Z,1.17
2023-03-29T22:13:28.279Z,1.17
2023-03-29T22:15:59.194Z,1.00
2023-03-29T22:18:28.064Z,0.93
2023-03-29T22:20:54.999Z,1.07
2023-03-29T22:23:21.812Z,1.47
2023-03-29T22:25:48.581Z,1.07
2023-03-29T22:28:15.568Z,1.00
2023-03-29T22:30:42.347Z,1.23
2023-03-29T22:33:09.208Z,1.20
2023-03-29T22:35:36.002Z,1.13
2023-03-29T22:38:02.745Z,1.00
2023-03-29T22:40:33.163Z,1.50
2023-03-29T22:43:00.280Z,1.50
2023-03-29T22:45:27.700Z,1.43
2023-03-29T22:47:54.600Z,1.67
2023-03-29T22:50:21.399Z,1.83
2023-03-29T22:52:48.219Z,2.70
2023-03-29T22:55:15.031Z,1.60
2023-03-29T22:57:42.128Z,1.77
2023-03-29T23:00:10.453Z,1.93
2023-03-29T23:02:37.371Z,1.50
2023-03-29T23:05:04.304Z,1.70
2023-03-29T23:07:31.175Z,1.43
2023-03-29T23:09:58.080Z,1.80
2023-03-29T23:12:24.841Z,1.23
2023-03-29T23:14:53.139Z,1.57
2023-03-29T23:17:20.521Z,1.40
2023-03-29T23:19:47.937Z,1.30
2023-03-29T23:22:14.788Z,1.70
2023-03-29T23:24:43.521Z,2.33
2023-03-29T23:27:10.260Z,2.07
2023-03-29T23:29:37.853Z,2.63
2023-03-29T23:32:04.618Z,1.50
2023-03-29T23:34:31.411Z,2.63
2023-03-29T23:36:58.156Z,2.23
2023-03-29T23:39:25.226Z,3.70
2023-03-29T23:41:51.946Z,3.03
2023-03-29T23:44:18.733Z,3.20
2023-03-29T23:46:45.768Z,2.03
2023-03-29T23:49:12.580Z,1.43
2023-03-29T23:51:39.361Z,1.30
2023-03-29T23:54:06.328Z,1.23
2023-03-29T23:56:33.358Z,0.90
2023-03-29T23:59:00.142Z,1.77
